sensor_id;sensor_type;location;lat;lon;timestamp;temperature;humidity
18797;DHT22;9526;52.612;13.300;2023-10-31T00:01:22;12.40;99.90
18797;DHT22;9526;52.612;13.300;2023-10-31T00:03:47;12.40;99.90
18797;DHT22;9526;52.612;13.300;2023-10-31T00:06:11;12.40;99.90
18797;DHT22;9526;52.612;13.300;2023-10-31T00:08:34;12.40;99.90
18797;DHT22;9526;52.612;13.300;2023-10-31T00:10:58;12.40;99.90
18797;DHT22;9526;52.612;13.300;2023-10-31T00:13:22;12.40;99.90
18797;DHT22;9526;52.612;13.300;2023-10-31T00:15:46;12.40;99.90
18797;DHT22;9526;52.612;13.300;2023-10-31T00:18:10;12.40;99.90
18797;DHT22;9526;52.612;13.300;2023-10-31T00:20:35;12.40;99.90
18797;DHT22;9526;52.612;13.300;2023-10-31T00:22:59;12.40;99.90
18797;DHT22;9526;52.612;13.300;2023-10-31T00:25:22;12.50;99.90
18797;DHT22;9526;52.612;13.300;2023-10-31T00:27:46;12.50;99.90
18797;DHT22;9526;52.612;13.300;2023-10-31T00:30:10;12.50;99.90
18797;DHT22;9526;52.612;13.300;2023-10-31T00:32:34;12.50;99.90
18797;DHT22;9526;52.612;13.300;2023-10-31T00:35:00;12.50;99.90
18797;DHT22;9526;52.612;13.300;2023-10-31T00:37:25;12.50;99.90
18797;DHT22;9526;52.612;13.300;2023-10-31T00:39:49;12.50;99.90
18797;DHT22;9526;52.612;13.300;2023-10-31T00:42:12;12.50;99.90
18797;DHT22;9526;52.612;13.300;2023-10-31T00:44:36;12.40;99.90
18797;DHT22;9526;52.612;13.300;2023-10-31T00:47:00;12.40;99.90
18797;DHT22;9526;52.612;13.300;2023-10-31T00:49:27;12.40;99.90
18797;DHT22;9526;52.612;13.300;2023-10-31T00:51:50;12.40;99.90
18797;DHT22;9526;52.612;13.300;2023-10-31T00:54:15;12.40;99.90
18797;DHT22;9526;52.612;13.300;2023-10-31T00:56:39;12.40;99.90
18797;DHT22;9526;52.612;13.300;2023-10-31T00:59:03;12.40;99.90
18797;DHT22;9526;52.612;13.300;2023-10-31T01:01:27;12.50;99.90
18797;DHT22;9526;52.612;13.300;2023-10-31T01:03:51;12.40;99.90
18797;DHT22;9526;52.612;13.300;2023-10-31T01:06:14;12.40;99.90
18797;DHT22;9526;52.612;13.300;2023-10-31T01:08:38;12.40;99.90
18797;DHT22;9526;52.612;13.300;2023-10-31T01:11:04;12.40;99.90
18797;DHT22;9526;52.612;13.300;2023-10-31T01:13:28;12.40;99.90
18797;DHT22;9526;52.612;13.300;2023-10-31T01:15:52;12.40;99.90
18797;DHT22;9526;52.612;13.300;2023-10-31T01:18:16;12.40;99.90
18797;DHT22;9526;52.612;13.300;2023-10-31T01:20:39;12.40;99.90
18797;DHT22;9526;52.612;13.300;2023-10-31T01:23:03;12.40;99.90
18797;DHT22;9526;52.612;13.300;2023-10-31T01:25:27;12.40;99.90
18797;DHT22;9526;52.612;13.300;2023-10-31T01:27:52;12.40;99.90
18797;DHT22;9526;52.612;13.300;2023-10-31T01:30:16;12.40;99.90
18797;DHT22;9526;52.612;13.300;2023-10-31T01:32:40;12.40;99.90
18797;DHT22;9526;52.612;13.300;2023-10-31T01:35:05;12.40;99.90
18797;DHT22;9526;52.612;13.300;2023-10-31T01:37:29;12.40;99.90
18797;DHT22;9526;52.612;13.300;2023-10-31T01:39:52;12.40;99.90
18797;DHT22;9526;52.612;13.300;2023-10-31T01:42:17;12.40;99.90
18797;DHT22;9526;52.612;13.300;2023-10-31T01:44:42;12.40;99.90
18797;DHT22;9526;52.612;13.300;2023-10-31T01:47:06;12.40;99.90
18797;DHT22;9526;52.612;13.300;2023-10-31T01:49:31;12.40;99.90
18797;DHT22;9526;52.612;13.300;2023-10-31T01:51:56;12.30;99.90
18797;DHT22;9526;52.612;13.300;2023-10-31T01:54:19;12.30;99.90
18797;DHT22;9526;52.612;13.300;2023-10-31T01:56:44;12.30;99.90
18797;DHT22;9526;52.612;13.300;2023-10-31T01:59:10;12.30;99.90
18797;DHT22;9526;52.612;13.300;2023-10-31T02:01:37;12.30;99.90
18797;DHT22;9526;52.612;13.300;2023-10-31T02:04:02;12.30;99.90
18797;DHT22;9526;52.612;13.300;2023-10-31T02:06:27;12.30;99.90
18797;DHT22;9526;52.612;13.300;2023-10-31T02:08:52;12.30;99.90
18797;DHT22;9526;52.612;13.300;2023-10-31T02:11:17;12.30;99.90
18797;DHT22;9526;52.612;13.300;2023-10-31T02:13:41;12.30;99.90
18797;DHT22;9526;52.612;13.300;2023-10-31T02:16:05;12.30;99.90
18797;DHT22;9526;52.612;13.300;2023-10-31T02:18:31;12.30;99.90
18797;DHT22;9526;52.612;13.300;2023-10-31T02:20:55;12.30;99.90
18797;DHT22;9526;52.612;13.300;2023-10-31T02:23:20;12.30;99.90
18797;DHT22;9526;52.612;13.300;2023-10-31T02:25:44;12.40;99.90
18797;DHT22;9526;52.612;13.300;2023-10-31T02:28:08;12.30;99.90
18797;DHT22;9526;52.612;13.300;2023-10-31T02:30:31;12.30;99.90
18797;DHT22;9526;52.612;13.300;2023-10-31T02:32:55;12.30;99.90
18797;DHT22;9526;52.612;13.300;2023-10-31T02:35:19;12.30;99.90
18797;DHT22;9526;52.612;13.300;2023-10-31T02:37:44;12.20;99.90
18797;DHT22;9526;52.612;13.300;2023-10-31T02:40:10;12.30;99.90
18797;DHT22;9526;52.612;13.300;2023-10-31T02:42:33;12.30;99.90
18797;DHT22;9526;52.612;13.300;2023-10-31T02:44:57;12.30;99.90
18797;DHT22;9526;52.612;13.300;2023-10-31T02:47:21;12.30;99.90
18797;DHT22;9526;52.612;13.300;2023-10-31T02:49:45;12.30;99.90
18797;DHT22;9526;52.612;13.300;2023-10-31T02:52:12;12.30;99.90
18797;DHT22;9526;52.612;13.300;2023-10-31T02:54:36;12.30;99.90
18797;DHT22;9526;52.612;13.300;2023-10-31T02:57:02;12.20;99.90
18797;DHT22;9526;52.612;13.300;2023-10-31T02:59:26;12.20;99.90
18797;DHT22;9526;52.612;13.300;2023-10-31T03:01:50;12.20;99.90
18797;DHT22;9526;52.612;13.300;2023-10-31T03:04:15;12.20;99.90
18797;DHT22;9526;52.612;13.300;2023-10-31T03:06:39;12.20;99.90
18797;DHT22;9526;52.612;13.300;2023-10-31T03:09:03;12.20;99.90
18797;DHT22;9526;52.612;13.300;2023-10-31T03:11:28;12.20;99.90
18797;DHT22;9526;52.612;13.300;2023-10-31T03:13:53;12.20;99.90
18797;DHT22;9526;52.612;13.300;2023-10-31T03:16:19;12.20;99.90
18797;DHT22;9526;52.612;13.300;2023-10-31T03:18:43;12.20;99.90
18797;DHT22;9526;52.612;13.300;2023-10-31T03:21:07;12.20;99.90
18797;DHT22;9526;52.612;13.300;2023-10-31T03:23:31;12.20;99.90
18797;DHT22;9526;52.612;13.300;2023-10-31T03:25:55;12.20;99.90
18797;DHT22;9526;52.612;13.300;2023-10-31T03:28:20;12.20;99.90
18797;DHT22;9526;52.612;13.300;2023-10-31T03:30:47;12.20;99.90
18797;DHT22;9526;52.612;13.300;2023-10-31T03:33:11;12.20;99.90
18797;DHT22;9526;52.612;13.300;2023-10-31T03:35:35;12.20;99.90
18797;DHT22;9526;52.612;13.300;2023-10-31T03:37:58;12.20;99.90
18797;DHT22;9526;52.612;13.300;2023-10-31T03:40:23;12.10;99.90
18797;DHT22;9526;52.612;13.300;2023-10-31T03:42:46;12.10;99.90
18797;DHT22;9526;52.612;13.300;2023-10-31T03:45:10;12.10;99.90
18797;DHT22;9526;52.612;13.300;2023-10-31T03:47:35;12.10;99.90
18797;DHT22;9526;52.612;13.300;2023-10-31T03:49:59;12.10;99.90
18797;DHT22;9526;52.612;13.300;2023-10-31T03:52:24;12.10;99.90
18797;DHT22;9526;52.612;13.300;2023-10-31T03:54:48;12.10;99.90
18797;DHT22;9526;52.612;13.300;2023-10-31T03:57:11;12.10;99.90
18797;DHT22;9526;52.612;13.300;2023-10-31T03:59:37;12.10;99.90
18797;DHT22;9526;52.612;13.300;2023-10-31T04:02:00;12.10;99.90
18797;DHT22;9526;52.612;13.300;2023-10-31T04:04:26;12.10;99.90
18797;DHT22;9526;52.612;13.300;2023-10-31T04:06:50;12.10;99.90
18797;DHT22;9526;52.612;13.300;2023-10-31T04:09:14;12.10;99.90
18797;DHT22;9526;52.612;13.300;2023-10-31T04:11:37;12.10;99.90
18797;DHT22;9526;52.612;13.300;2023-10-31T04:14:01;12.10;99.90
18797;DHT22;9526;52.612;13.300;2023-10-31T04:16:26;12.10;99.90
18797;DHT22;9526;52.612;13.300;2023-10-31T04:18:50;12.10;99.90
18797;DHT22;9526;52.612;13.300;2023-10-31T04:21:15;12.10;99.90
18797;DHT22;9526;52.612;13.300;2023-10-31T04:23:39;12.10;99.90
18797;DHT22;9526;52.612;13.300;2023-10-31T04:26:03;12.10;99.90
18797;DHT22;9526;52.612;13.300;2023-10-31T04:28:27;12.10;99.90
18797;DHT22;9526;52.612;13.300;2023-10-31T04:30:51;12.10;99.90
18797;DHT22;9526;52.612;13.300;2023-10-31T04:33:15;12.10;99.90
18797;DHT22;9526;52.612;13.300;2023-10-31T04:35:38;12.10;99.90
18797;DHT22;9526;52.612;13.300;2023-10-31T04:38:04;12.10;99.90
18797;DHT22;9526;52.612;13.300;2023-10-31T04:40:28;12.10;99.90
18797;DHT22;9526;52.612;13.300;2023-10-31T04:42:51;12.10;99.90
18797;DHT22;9526;52.612;13.300;2023-10-31T04:45:15;12.10;99.90
18797;DHT22;9526;52.612;13.300;2023-10-31T04:47:40;12.10;99.90
18797;DHT22;9526;52.612;13.300;2023-10-31T04:50:05;12.10;99.90
18797;DHT22;9526;52.612;13.300;2023-10-31T04:52:29;12.10;99.90
18797;DHT22;9526;52.612;13.300;2023-10-31T04:54:54;12.20;99.90
18797;DHT22;9526;52.612;13.300;2023-10-31T04:57:18;12.20;99.90
18797;DHT22;9526;52.612;13.300;2023-10-31T04:59:42;12.20;99.90
18797;DHT22;9526;52.612;13.300;2023-10-31T05:02:05;12.20;99.90
18797;DHT22;9526;52.612;13.300;2023-10-31T05:04:29;12.20;99.90
18797;DHT22;9526;52.612;13.300;2023-10-31T05:06:53;12.20;99.90
18797;DHT22;9526;52.612;13.300;2023-10-31T05:09:18;12.20;99.90
18797;DHT22;9526;52.612;13.300;2023-10-31T05:11:44;12.20;99.90
18797;DHT22;9526;52.612;13.300;2023-10-31T05:14:09;12.20;99.90
18797;DHT22;9526;52.612;13.300;2023-10-31T05:16:39;12.20;99.90
18797;DHT22;9526;52.612;13.300;2023-10-31T05:19:04;12.10;99.90
18797;DHT22;9526;52.612;13.300;2023-10-31T05:21:27;12.20;99.90
18797;DHT22;9526;52.612;13.300;2023-10-31T05:23:51;12.20;99.90
18797;DHT22;9526;52.612;13.300;2023-10-31T05:26:15;12.20;99.90
18797;DHT22;9526;52.612;13.300;2023-10-31T05:28:40;12.20;99.90
18797;DHT22;9526;52.612;13.300;2023-10-31T05:31:05;12.20;99.90
18797;DHT22;9526;52.612;13.300;2023-10-31T05:33:28;12.30;99.90
18797;DHT22;9526;52.612;13.300;2023-10-31T05:35:52;12.30;99.90
18797;DHT22;9526;52.612;13.300;2023-10-31T05:38:16;12.30;99.90
18797;DHT22;9526;52.612;13.300;2023-10-31T05:40:40;12.30;99.90
18797;DHT22;9526;52.612;13.300;2023-10-31T05:43:04;12.30;99.90
18797;DHT22;9526;52.612;13.300;2023-10-31T05:45:30;12.30;99.90
18797;DHT22;9526;52.612;13.300;2023-10-31T05:47:54;12.40;99.90
18797;DHT22;9526;52.612;13.300;2023-10-31T05:50:18;12.40;99.90
18797;DHT22;9526;52.612;13.300;2023-10-31T05:52:42;12.40;99.90
18797;DHT22;9526;52.612;13.300;2023-10-31T05:55:06;12.40;99.90
18797;DHT22;9526;52.612;13.300;2023-10-31T05:57:31;12.40;99.90
18797;DHT22;9526;52.612;13.300;2023-10-31T05:59:54;12.40;99.90
18797;DHT22;9526;52.612;13.300;2023-10-31T06:02:20;12.40;99.90
18797;DHT22;9526;52.612;13.300;2023-10-31T06:04:42;12.40;99.90
18797;DHT22;9526;52.612;13.300;2023-10-31T06:07:06;12.40;99.90
18797;DHT22;9526;52.612;13.300;2023-10-31T06:09:29;12.40;99.90
18797;DHT22;9526;52.612;13.300;2023-10-31T06:11:55;12.40;99.90
18797;DHT22;9526;52.612;13.300;2023-10-31T06:14:18;12.40;99.90
18797;DHT22;9526;52.612;13.300;2023-10-31T06:16:43;12.40;99.90
18797;DHT22;9526;52.612;13.300;2023-10-31T06:19:09;12.40;99.90
18797;DHT22;9526;52.612;13.300;2023-10-31T06:21:33;12.40;99.90
18797;DHT22;9526;52.612;13.300;2023-10-31T06:23:57;12.40;99.90
18797;DHT22;9526;52.612;13.300;2023-10-31T06:26:20;12.40;99.90
18797;DHT22;9526;52.612;13.300;2023-10-31T06:28:44;12.50;99.90
18797;DHT22;9526;52.612;13.300;2023-10-31T06:31:28;12.50;99.90
18797;DHT22;9526;52.612;13.300;2023-10-31T06:33:52;12.50;99.90
18797;DHT22;9526;52.612;13.300;2023-10-31T06:36:17;12.50;99.90
18797;DHT22;9526;52.612;13.300;2023-10-31T06:38:41;12.50;99.90
18797;DHT22;9526;52.612;13.300;2023-10-31T06:41:05;12.60;99.90
18797;DHT22;9526;52.612;13.300;2023-10-31T06:43:29;12.60;99.90
18797;DHT22;9526;52.612;13.300;2023-10-31T06:45:55;12.50;99.90
18797;DHT22;9526;52.612;13.300;2023-10-31T06:48:22;12.60;99.90
18797;DHT22;9526;52.612;13.300;2023-10-31T06:50:46;12.60;99.90
18797;DHT22;9526;52.612;13.300;2023-10-31T06:53:11;12.60;99.90
18797;DHT22;9526;52.612;13.300;2023-10-31T06:55:35;12.60;99.90
18797;DHT22;9526;52.612;13.300;2023-10-31T06:57:59;12.60;99.90
18797;DHT22;9526;52.612;13.300;2023-10-31T07:00:23;12.70;99.90
18797;DHT22;9526;52.612;13.300;2023-10-31T07:02:47;12.70;99.90
18797;DHT22;9526;52.612;13.300;2023-10-31T07:05:11;12.70;99.90
18797;DHT22;9526;52.612;13.300;2023-10-31T07:07:36;12.80;99.90
18797;DHT22;9526;52.612;13.300;2023-10-31T07:10:01;12.80;99.90
18797;DHT22;9526;52.612;13.300;2023-10-31T07:12:25;12.80;99.90
18797;DHT22;9526;52.612;13.300;2023-10-31T07:14:49;12.80;99.90
18797;DHT22;9526;52.612;13.300;2023-10-31T07:17:13;12.90;99.90
18797;DHT22;9526;52.612;13.300;2023-10-31T07:19:37;12.90;99.90
18797;DHT22;9526;52.612;13.300;2023-10-31T07:22:01;12.80;99.90
18797;DHT22;9526;52.612;13.300;2023-10-31T07:24:25;12.80;99.90
18797;DHT22;9526;52.612;13.300;2023-10-31T07:26:51;12.80;99.90
18797;DHT22;9526;52.612;13.300;2023-10-31T07:29:15;12.80;99.90
18797;DHT22;9526;52.612;13.300;2023-10-31T07:31:39;12.80;99.90
18797;DHT22;9526;52.612;13.300;2023-10-31T07:34:03;12.80;99.90
18797;DHT22;9526;52.612;13.300;2023-10-31T07:36:26;12.80;99.90
18797;DHT22;9526;52.612;13.300;2023-10-31T07:38:50;12.80;99.90
18797;DHT22;9526;52.612;13.300;2023-10-31T07:41:14;12.80;99.90
18797;DHT22;9526;52.612;13.300;2023-10-31T07:43:40;12.90;99.90
18797;DHT22;9526;52.612;13.300;2023-10-31T07:46:04;12.80;99.90
18797;DHT22;9526;52.612;13.300;2023-10-31T07:48:28;12.80;99.90
18797;DHT22;9526;52.612;13.300;2023-10-31T07:50:52;12.80;99.90
18797;DHT22;9526;52.612;13.300;2023-10-31T07:53:16;12.80;99.90
18797;DHT22;9526;52.612;13.300;2023-10-31T07:55:40;12.80;99.90
18797;DHT22;9526;52.612;13.300;2023-10-31T07:58:03;12.80;99.90
18797;DHT22;9526;52.612;13.300;2023-10-31T08:00:29;12.70;99.90
18797;DHT22;9526;52.612;13.300;2023-10-31T08:02:54;12.60;99.90
18797;DHT22;9526;52.612;13.300;2023-10-31T08:05:18;12.60;99.90
18797;DHT22;9526;52.612;13.300;2023-10-31T08:07:42;12.60;99.90
18797;DHT22;9526;52.612;13.300;2023-10-31T08:10:06;12.60;99.90
18797;DHT22;9526;52.612;13.300;2023-10-31T08:12:31;12.50;99.90
18797;DHT22;9526;52.612;13.300;2023-10-31T08:14:55;12.50;99.90
18797;DHT22;9526;52.612;13.300;2023-10-31T08:17:22;12.50;99.90
18797;DHT22;9526;52.612;13.300;2023-10-31T08:19:44;12.50;99.90
18797;DHT22;9526;52.612;13.300;2023-10-31T08:22:10;12.40;99.90
18797;DHT22;9526;52.612;13.300;2023-10-31T08:24:33;12.40;99.90
18797;DHT22;9526;52.612;13.300;2023-10-31T08:26:59;12.30;99.90
18797;DHT22;9526;52.612;13.300;2023-10-31T08:29:23;12.40;99.90
18797;DHT22;9526;52.612;13.300;2023-10-31T08:31:47;12.40;99.90
18797;DHT22;9526;52.612;13.300;2023-10-31T08:34:13;12.30;99.90
18797;DHT22;9526;52.612;13.300;2023-10-31T08:36:36;12.30;99.90
18797;DHT22;9526;52.612;13.300;2023-10-31T08:39:01;12.30;99.90
18797;DHT22;9526;52.612;13.300;2023-10-31T08:41:25;12.30;99.90
18797;DHT22;9526;52.612;13.300;2023-10-31T08:43:49;12.30;99.90
18797;DHT22;9526;52.612;13.300;2023-10-31T08:46:13;12.30;99.90
18797;DHT22;9526;52.612;13.300;2023-10-31T08:48:37;12.40;99.90
18797;DHT22;9526;52.612;13.300;2023-10-31T08:51:03;12.40;99.90
18797;DHT22;9526;52.612;13.300;2023-10-31T08:53:27;12.50;99.90
18797;DHT22;9526;52.612;13.300;2023-10-31T08:55:50;12.40;99.90
18797;DHT22;9526;52.612;13.300;2023-10-31T08:58:14;12.40;99.90
18797;DHT22;9526;52.612;13.300;2023-10-31T09:00:40;12.50;99.90
18797;DHT22;9526;52.612;13.300;2023-10-31T09:03:04;12.60;99.90
18797;DHT22;9526;52.612;13.300;2023-10-31T09:05:28;12.60;99.90
18797;DHT22;9526;52.612;13.300;2023-10-31T09:07:53;12.60;99.90
18797;DHT22;9526;52.612;13.300;2023-10-31T09:10:19;12.60;99.90
18797;DHT22;9526;52.612;13.300;2023-10-31T09:12:43;12.60;99.90
18797;DHT22;9526;52.612;13.300;2023-10-31T09:15:09;12.60;99.90
18797;DHT22;9526;52.612;13.300;2023-10-31T09:17:33;12.70;99.90
18797;DHT22;9526;52.612;13.300;2023-10-31T09:19:56;12.70;99.90
18797;DHT22;9526;52.612;13.300;2023-10-31T09:22:21;12.70;99.90
18797;DHT22;9526;52.612;13.300;2023-10-31T09:24:46;12.60;99.90
18797;DHT22;9526;52.612;13.300;2023-10-31T09:27:10;12.60;99.90
18797;DHT22;9526;52.612;13.300;2023-10-31T09:29:34;12.60;99.90
18797;DHT22;9526;52.612;13.300;2023-10-31T09:31:58;12.70;99.90
18797;DHT22;9526;52.612;13.300;2023-10-31T09:34:22;12.70;99.90
18797;DHT22;9526;52.612;13.300;2023-10-31T09:36:46;12.60;99.90
18797;DHT22;9526;52.612;13.300;2023-10-31T09:39:09;12.60;99.90
18797;DHT22;9526;52.612;13.300;2023-10-31T09:41:34;12.60;99.90
18797;DHT22;9526;52.612;13.300;2023-10-31T09:43:59;12.60;99.90
18797;DHT22;9526;52.612;13.300;2023-10-31T09:46:22;12.60;99.90
18797;DHT22;9526;52.612;13.300;2023-10-31T09:48:47;12.50;99.90
18797;DHT22;9526;52.612;13.300;2023-10-31T09:51:11;12.60;99.90
18797;DHT22;9526;52.612;13.300;2023-10-31T09:53:37;12.60;99.90
18797;DHT22;9526;52.612;13.300;2023-10-31T09:56:02;12.60;99.90
18797;DHT22;9526;52.612;13.300;2023-10-31T09:58:27;12.60;99.90
18797;DHT22;9526;52.612;13.300;2023-10-31T10:00:51;12.60;99.90
18797;DHT22;9526;52.612;13.300;2023-10-31T10:03:15;12.60;99.90
18797;DHT22;9526;52.612;13.300;2023-10-31T10:05:40;12.60;99.90
18797;DHT22;9526;52.612;13.300;2023-10-31T10:08:07;12.60;99.90
18797;DHT22;9526;52.612;13.300;2023-10-31T10:10:31;12.60;99.90
18797;DHT22;9526;52.612;13.300;2023-10-31T10:12:56;12.60;99.90
18797;DHT22;9526;52.612;13.300;2023-10-31T10:15:22;12.60;99.90
18797;DHT22;9526;52.612;13.300;2023-10-31T10:17:49;12.70;99.90
18797;DHT22;9526;52.612;13.300;2023-10-31T10:20:13;12.80;99.90
18797;DHT22;9526;52.612;13.300;2023-10-31T10:22:38;12.80;99.90
18797;DHT22;9526;52.612;13.300;2023-10-31T10:25:04;12.90;99.90
18797;DHT22;9526;52.612;13.300;2023-10-31T10:27:28;13.00;99.90
18797;DHT22;9526;52.612;13.300;2023-10-31T10:29:53;13.00;99.90
18797;DHT22;9526;52.612;13.300;2023-10-31T10:32:18;13.00;99.90
18797;DHT22;9526;52.612;13.300;2023-10-31T10:34:42;13.00;99.90
18797;DHT22;9526;52.612;13.300;2023-10-31T10:37:06;13.00;99.90
18797;DHT22;9526;52.612;13.300;2023-10-31T10:39:30;13.00;99.90
18797;DHT22;9526;52.612;13.300;2023-10-31T10:41:56;13.10;99.90
18797;DHT22;9526;52.612;13.300;2023-10-31T10:44:31;13.10;99.90
18797;DHT22;9526;52.612;13.300;2023-10-31T10:46:56;13.00;99.90
18797;DHT22;9526;52.612;13.300;2023-10-31T10:49:24;13.10;99.90
18797;DHT22;9526;52.612;13.300;2023-10-31T10:51:53;13.00;99.90
18797;DHT22;9526;52.612;13.300;2023-10-31T10:54:25;13.00;99.90
18797;DHT22;9526;52.612;13.300;2023-10-31T10:56:54;13.00;99.90
18797;DHT22;9526;52.612;13.300;2023-10-31T10:59:20;13.00;99.90
18797;DHT22;9526;52.612;13.300;2023-10-31T11:01:46;13.00;99.90
18797;DHT22;9526;52.612;13.300;2023-10-31T11:04:12;13.00;99.90
18797;DHT22;9526;52.612;13.300;2023-10-31T11:06:39;13.00;99.90
18797;DHT22;9526;52.612;13.300;2023-10-31T11:09:06;13.10;99.90
18797;DHT22;9526;52.612;13.300;2023-10-31T11:11:31;13.10;99.90
18797;DHT22;9526;52.612;13.300;2023-10-31T11:13:57;13.10;99.90
18797;DHT22;9526;52.612;13.300;2023-10-31T11:16:29;13.20;99.90
18797;DHT22;9526;52.612;13.300;2023-10-31T11:18:57;13.20;99.90
18797;DHT22;9526;52.612;13.300;2023-10-31T11:21:23;13.20;99.90
18797;DHT22;9526;52.612;13.300;2023-10-31T11:23:57;13.30;99.90
18797;DHT22;9526;52.612;13.300;2023-10-31T11:26:25;13.30;99.90
18797;DHT22;9526;52.612;13.300;2023-10-31T11:28:51;13.20;99.90
18797;DHT22;9526;52.612;13.300;2023-10-31T11:31:16;13.20;99.90
18797;DHT22;9526;52.612;13.300;2023-10-31T11:33:41;13.20;99.90
18797;DHT22;9526;52.612;13.300;2023-10-31T11:36:10;13.20;99.90
18797;DHT22;9526;52.612;13.300;2023-10-31T11:38:36;13.20;99.90
18797;DHT22;9526;52.612;13.300;2023-10-31T11:41:04;13.20;99.90
18797;DHT22;9526;52.612;13.300;2023-10-31T11:43:51;13.20;99.90
18797;DHT22;9526;52.612;13.300;2023-10-31T11:46:18;13.20;99.90
18797;DHT22;9526;52.612;13.300;2023-10-31T11:48:47;13.20;99.90
18797;DHT22;9526;52.612;13.300;2023-10-31T11:51:13;13.20;99.90
18797;DHT22;9526;52.612;13.300;2023-10-31T11:53:39;13.30;99.90
18797;DHT22;9526;52.612;13.300;2023-10-31T11:56:14;13.40;99.90
18797;DHT22;9526;52.612;13.300;2023-10-31T11:58:39;13.40;99.90
18797;DHT22;9526;52.612;13.300;2023-10-31T12:01:05;13.50;99.90
18797;DHT22;9526;52.612;13.300;2023-10-31T12:03:37;13.50;99.90
18797;DHT22;9526;52.612;13.300;2023-10-31T12:06:03;13.50;99.90
18797;DHT22;9526;52.612;13.300;2023-10-31T12:08:29;13.50;99.90
18797;DHT22;9526;52.612;13.300;2023-10-31T12:11:06;13.40;99.90
18797;DHT22;9526;52.612;13.300;2023-10-31T12:13:34;13.30;99.90
18797;DHT22;9526;52.612;13.300;2023-10-31T12:15:59;13.30;99.90
18797;DHT22;9526;52.612;13.300;2023-10-31T12:18:25;13.30;99.90
18797;DHT22;9526;52.612;13.300;2023-10-31T12:20:50;13.40;99.90
18797;DHT22;9526;52.612;13.300;2023-10-31T12:23:15;13.40;99.90
18797;DHT22;9526;52.612;13.300;2023-10-31T12:25:46;13.40;99.90
18797;DHT22;9526;52.612;13.300;2023-10-31T12:28:10;13.40;99.90
18797;DHT22;9526;52.612;13.300;2023-10-31T12:30:46;13.40;99.90
18797;DHT22;9526;52.612;13.300;2023-10-31T12:33:10;13.40;99.90
18797;DHT22;9526;52.612;13.300;2023-10-31T12:35:34;13.40;99.90
18797;DHT22;9526;52.612;13.300;2023-10-31T12:37:58;13.40;99.90
18797;DHT22;9526;52.612;13.300;2023-10-31T12:40:22;13.40;99.90
18797;DHT22;9526;52.612;13.300;2023-10-31T12:42:48;13.40;99.90
18797;DHT22;9526;52.612;13.300;2023-10-31T12:45:12;13.40;99.90
18797;DHT22;9526;52.612;13.300;2023-10-31T12:47:37;13.40;99.90
18797;DHT22;9526;52.612;13.300;2023-10-31T12:50:09;13.30;99.90
18797;DHT22;9526;52.612;13.300;2023-10-31T12:52:48;13.30;99.90
18797;DHT22;9526;52.612;13.300;2023-10-31T12:55:13;13.30;99.90
18797;DHT22;9526;52.612;13.300;2023-10-31T12:57:40;13.40;99.90
18797;DHT22;9526;52.612;13.300;2023-10-31T13:00:05;13.30;99.90
18797;DHT22;9526;52.612;13.300;2023-10-31T13:02:32;13.20;99.90
18797;DHT22;9526;52.612;13.300;2023-10-31T13:05:10;13.20;99.90
18797;DHT22;9526;52.612;13.300;2023-10-31T13:07:36;13.20;99.90
18797;DHT22;9526;52.612;13.300;2023-10-31T13:10:01;13.20;99.90
18797;DHT22;9526;52.612;13.300;2023-10-31T13:12:26;13.20;99.90
18797;DHT22;9526;52.612;13.300;2023-10-31T13:14:51;13.10;99.90
18797;DHT22;9526;52.612;13.300;2023-10-31T13:17:15;13.10;99.90
18797;DHT22;9526;52.612;13.300;2023-10-31T13:19:41;13.10;99.90
18797;DHT22;9526;52.612;13.300;2023-10-31T13:22:06;13.00;99.90
18797;DHT22;9526;52.612;13.300;2023-10-31T13:24:30;13.00;99.90
18797;DHT22;9526;52.612;13.300;2023-10-31T13:26:54;13.10;99.90
18797;DHT22;9526;52.612;13.300;2023-10-31T13:29:18;13.10;99.90
18797;DHT22;9526;52.612;13.300;2023-10-31T13:31:42;13.00;99.90
18797;DHT22;9526;52.612;13.300;2023-10-31T13:34:06;13.00;99.90
18797;DHT22;9526;52.612;13.300;2023-10-31T13:36:29;13.00;99.90
18797;DHT22;9526;52.612;13.300;2023-10-31T13:38:55;13.00;99.90
18797;DHT22;9526;52.612;13.300;2023-10-31T13:41:18;12.90;99.90
18797;DHT22;9526;52.612;13.300;2023-10-31T13:43:42;12.80;99.90
18797;DHT22;9526;52.612;13.300;2023-10-31T13:46:06;12.80;99.90
18797;DHT22;9526;52.612;13.300;2023-10-31T13:48:30;12.70;99.90
18797;DHT22;9526;52.612;13.300;2023-10-31T13:50:53;12.70;99.90
18797;DHT22;9526;52.612;13.300;2023-10-31T13:53:18;12.70;99.90
18797;DHT22;9526;52.612;13.300;2023-10-31T13:55:44;12.70;99.90
18797;DHT22;9526;52.612;13.300;2023-10-31T13:58:08;12.70;99.90
18797;DHT22;9526;52.612;13.300;2023-10-31T14:00:31;12.70;99.90
18797;DHT22;9526;52.612;13.300;2023-10-31T14:02:57;12.80;99.90
18797;DHT22;9526;52.612;13.300;2023-10-31T14:05:21;12.80;99.90
18797;DHT22;9526;52.612;13.300;2023-10-31T14:07:45;12.80;99.90
18797;DHT22;9526;52.612;13.300;2023-10-31T14:10:09;12.80;99.90
18797;DHT22;9526;52.612;13.300;2023-10-31T14:12:36;12.80;99.90
18797;DHT22;9526;52.612;13.300;2023-10-31T14:15:00;12.80;99.90
18797;DHT22;9526;52.612;13.300;2023-10-31T14:17:23;12.70;99.90
18797;DHT22;9526;52.612;13.300;2023-10-31T14:19:48;12.70;99.90
18797;DHT22;9526;52.612;13.300;2023-10-31T14:22:12;12.70;99.90
18797;DHT22;9526;52.612;13.300;2023-10-31T14:24:36;12.80;99.90
18797;DHT22;9526;52.612;13.300;2023-10-31T14:27:00;12.70;99.90
18797;DHT22;9526;52.612;13.300;2023-10-31T14:29:25;12.70;99.90
18797;DHT22;9526;52.612;13.300;2023-10-31T14:31:49;12.60;99.90
18797;DHT22;9526;52.612;13.300;2023-10-31T14:34:14;12.60;99.90
18797;DHT22;9526;52.612;13.300;2023-10-31T14:36:38;12.60;99.90
18797;DHT22;9526;52.612;13.300;2023-10-31T14:39:02;12.50;99.90
18797;DHT22;9526;52.612;13.300;2023-10-31T14:41:27;12.50;99.90
18797;DHT22;9526;52.612;13.300;2023-10-31T14:43:55;12.40;99.90
18797;DHT22;9526;52.612;13.300;2023-10-31T14:46:20;12.20;99.90
18797;DHT22;9526;52.612;13.300;2023-10-31T14:48:44;12.00;99.90
18797;DHT22;9526;52.612;13.300;2023-10-31T14:51:08;12.00;99.90
18797;DHT22;9526;52.612;13.300;2023-10-31T14:53:34;11.90;99.90
18797;DHT22;9526;52.612;13.300;2023-10-31T14:55:58;11.90;99.90
18797;DHT22;9526;52.612;13.300;2023-10-31T14:58:22;11.80;99.90
18797;DHT22;9526;52.612;13.300;2023-10-31T15:00:46;11.80;99.90
18797;DHT22;9526;52.612;13.300;2023-10-31T15:03:11;11.70;99.90
18797;DHT22;9526;52.612;13.300;2023-10-31T15:05:35;11.70;99.90
18797;DHT22;9526;52.612;13.300;2023-10-31T15:07:59;11.70;99.90
18797;DHT22;9526;52.612;13.300;2023-10-31T15:10:23;11.70;99.90
18797;DHT22;9526;52.612;13.300;2023-10-31T15:12:49;11.60;99.90
18797;DHT22;9526;52.612;13.300;2023-10-31T15:15:15;11.60;99.90